SLSA/SBL METAR and TAF weather

Enter ICAO airport designator
Station Type Date Time Source
SLSA METAR 2022/01/28 23:00 UTC NOAA

SLSA 282300Z 00000KT 9999 BKN015 OVC200 26/24 Q1004


Station Type Date Time Source
SLSA Decoded METAR 2022/01/28 23:00 UTC NOAA

Santa Ana, Bolivia (SLSA) 13-46S 065-26W
Jan 28, 2022 - 06:00 PM EST / 2022.01.28 2300 UTC
Wind: Calm:0
Visibility: greater than 7 mile(s):0
Sky conditions: overcast
Temperature: 78 F (26 C)
Dew Point: 75 F (24 C)
Relative Humidity: 88%
Pressure (altimeter): 29.65 in. Hg (1004 hPa)
ob: SLSA 282300Z 00000KT 9999 BKN015 OVC200 26/24 Q1004
cycle: 23

Station Type Date Time Source
SLSA TAF 2009/01/07 11:00 UTC NOAA

METAR SLSA 071100Z 00000KT 9999 FEW020 BKN080 26/24 Q1009

Example: see airport list